Time;durP1;ratioP1;P1;durP2;ratioP2;P2;SDS_P1;SDS_P2;PMS_P1;PMS_P2;Temp;Humidity;BMP_temperature;BMP_pressure;BME280_temperature;BME280_humidity;BME280_pressure;Samples;Min_cycle;Max_cycle;Signal;HPM_P1;HPM_P2
2023/11/03 00:01:57;;;;;;;2.25;0.30;;;9.40;99.90;;;;;;4983252;28;20047;-78
2023/11/03 00:04:23;;;;;;;5.15;0.77;;;9.40;99.90;;;;;;4968519;28;20077;-80
2023/11/03 00:06:49;;;;;;;1.13;0.45;;;9.40;99.90;;;;;;5000233;28;20507;-79
2023/11/03 00:09:15;;;;;;;2.08;0.40;;;9.40;99.90;;;;;;4983392;28;20118;-79
2023/11/03 00:11:43;;;;;;;7.43;0.95;;;9.30;99.90;;;;;;4984298;28;20121;-79
2023/11/03 00:14:09;;;;;;;2.25;0.57;;;9.40;99.90;;;;;;4968475;28;20065;-80
2023/11/03 00:16:35;;;;;;;3.83;1.00;;;9.40;99.90;;;;;;4967796;28;20120;-79
2023/11/03 00:19:04;;;;;;;2.63;0.57;;;9.50;99.90;;;;;;4984600;28;20463;-80
2023/11/03 00:21:32;;;;;;;2.58;0.63;;;9.40;99.90;;;;;;4986333;28;20504;-79
2023/11/03 00:23:57;;;;;;;4.10;1.05;;;9.40;99.90;;;;;;4997510;28;20074;-79
2023/11/03 00:26:23;;;;;;;1.13;0.40;;;9.40;99.90;;;;;;4984158;28;20110;-80
2023/11/03 00:28:49;;;;;;;3.47;0.90;;;9.30;99.90;;;;;;4984142;28;20030;-80
2023/11/03 00:31:15;;;;;;;4.05;0.43;;;9.40;99.90;;;;;;4967534;28;20038;-79
2023/11/03 00:33:41;;;;;;;1.50;0.30;;;9.40;99.90;;;;;;4985998;28;20487;-79
2023/11/03 00:36:07;;;;;;;4.95;0.73;;;9.40;99.90;;;;;;4968246;28;20029;-79
2023/11/03 00:38:32;;;;;;;1.30;0.70;;;9.40;99.90;;;;;;4979317;28;20034;-80
2023/11/03 00:40:58;;;;;;;1.95;0.73;;;9.40;99.90;;;;;;4984023;28;20030;-80
2023/11/03 00:43:24;;;;;;;1.63;0.32;;;9.40;99.90;;;;;;4967653;28;20042;-79
2023/11/03 00:45:50;;;;;;;2.08;0.75;;;9.40;99.90;;;;;;4967211;28;20042;-79
2023/11/03 00:48:15;;;;;;;2.88;0.30;;;9.40;99.90;;;;;;4966611;28;20102;-79
2023/11/03 00:50:41;;;;;;;3.03;0.30;;;9.50;99.90;;;;;;4984438;28;20042;-79
2023/11/03 00:53:07;;;;;;;1.98;0.30;;;9.50;99.90;;;;;;4982192;28;20066;-79
2023/11/03 00:55:32;;;;;;;5.20;0.30;;;9.50;99.90;;;;;;4983062;28;20026;-79
2023/11/03 00:57:59;;;;;;;2.90;0.35;;;9.50;99.90;;;;;;4968302;28;20026;-80
2023/11/03 01:00:25;;;;;;;2.33;0.40;;;9.50;99.90;;;;;;4966614;28;20121;-79
2023/11/03 01:02:51;;;;;;;5.53;0.63;;;9.50;99.90;;;;;;4967225;28;20137;-79
2023/11/03 01:05:21;;;;;;;1.58;0.60;;;9.40;99.90;;;;;;4984055;28;20030;-79
2023/11/03 01:07:47;;;;;;;2.75;0.50;;;9.60;99.90;;;;;;4983462;28;20455;-79
2023/11/03 01:10:16;;;;;;;3.60;0.80;;;9.60;99.90;;;;;;4982959;28;20067;-80
2023/11/03 01:12:43;;;;;;;0.45;0.22;;;9.60;99.90;;;;;;4983405;28;20402;-79
2023/11/03 01:15:10;;;;;;;1.50;0.50;;;9.60;99.90;;;;;;4999289;28;20384;-79
2023/11/03 01:17:37;;;;;;;1.17;0.50;;;9.70;99.90;;;;;;5000361;28;20054;-80
2023/11/03 01:20:12;;;;;;;1.60;0.32;;;9.60;99.90;;;;;;4998892;28;20035;-80
2023/11/03 01:22:38;;;;;;;1.02;0.60;;;9.70;99.90;;;;;;4980093;28;20124;-80
2023/11/03 01:25:05;;;;;;;4.20;0.30;;;9.70;99.90;;;;;;4986197;28;20026;-79
2023/11/03 01:27:31;;;;;;;3.38;0.40;;;9.70;99.90;;;;;;4983295;28;20382;-79
2023/11/03 01:29:57;;;;;;;0.65;0.38;;;9.60;99.90;;;;;;4980862;28;20034;-79
2023/11/03 01:32:22;;;;;;;4.07;0.35;;;9.80;99.90;;;;;;4966981;28;20430;-79
2023/11/03 01:34:48;;;;;;;1.17;0.50;;;9.70;99.90;;;;;;4967023;28;20388;-79
2023/11/03 01:37:13;;;;;;;1.67;0.30;;;9.70;99.90;;;;;;4966760;28;20434;-79
2023/11/03 01:39:39;;;;;;;3.25;0.47;;;9.70;99.90;;;;;;4981771;28;20498;-79
2023/11/03 01:42:05;;;;;;;3.10;1.00;;;9.70;99.90;;;;;;4983511;28;20038;-79
2023/11/03 01:44:33;;;;;;;0.35;0.20;;;9.70;99.90;;;;;;4995690;28;20030;-79
2023/11/03 01:46:59;;;;;;;2.17;0.25;;;9.70;99.90;;;;;;4994915;28;20038;-78
2023/11/03 01:49:25;;;;;;;0.40;0.17;;;9.70;99.90;;;;;;4966650;28;20529;-79
2023/11/03 01:51:50;;;;;;;0.25;0.25;;;9.60;99.90;;;;;;4966216;28;20026;-79
2023/11/03 01:54:16;;;;;;;2.50;0.52;;;9.60;99.90;;;;;;4982027;28;20113;-79
2023/11/03 01:56:41;;;;;;;2.10;0.60;;;9.70;99.90;;;;;;4979832;28;20065;-78
2023/11/03 01:59:07;;;;;;;2.55;0.65;;;9.70;99.90;;;;;;4996838;28;20055;-80
2023/11/03 02:01:34;;;;;;;3.83;0.30;;;9.80;99.90;;;;;;4981984;28;20559;-79
2023/11/03 02:04:00;;;;;;;3.08;0.80;;;9.70;99.90;;;;;;4983473;28;20069;-79
2023/11/03 02:06:26;;;;;;;1.45;0.50;;;9.70;99.90;;;;;;4973351;28;20117;-79
2023/11/03 02:08:51;;;;;;;2.70;0.40;;;9.70;99.90;;;;;;4982124;28;20072;-79
2023/11/03 02:11:27;;;;;;;0.30;0.28;;;9.60;99.90;;;;;;4966285;28;20134;-78
2023/11/03 02:13:52;;;;;;;2.65;0.50;;;9.70;99.90;;;;;;4983100;28;20037;-78
2023/11/03 02:16:18;;;;;;;0.98;0.40;;;9.80;99.90;;;;;;4981113;28;20026;-79
2023/11/03 02:18:43;;;;;;;4.18;0.47;;;9.70;99.90;;;;;;4981882;28;21006;-79
2023/11/03 02:21:09;;;;;;;2.30;0.47;;;9.70;99.90;;;;;;4997096;28;20109;-79
2023/11/03 02:23:35;;;;;;;3.58;0.52;;;9.60;99.90;;;;;;4996315;28;20034;-78
2023/11/03 02:26:01;;;;;;;9.75;0.50;;;9.70;99.90;;;;;;4980592;28;20193;-78
2023/11/03 02:28:27;;;;;;;2.20;0.80;;;9.70;99.90;;;;;;4953347;28;20038;-79
2023/11/03 02:30:52;;;;;;;3.40;0.70;;;9.70;99.90;;;;;;4965739;28;20034;-78
2023/11/03 02:33:18;;;;;;;0.93;0.28;;;9.70;99.90;;;;;;4982284;28;20023;-78
2023/11/03 02:35:44;;;;;;;4.22;0.63;;;9.80;99.90;;;;;;4995249;28;20034;-79
2023/11/03 02:38:09;;;;;;;3.22;0.47;;;9.80;99.90;;;;;;5000092;28;20043;-78
2023/11/03 02:40:36;;;;;;;1.83;0.30;;;9.80;99.90;;;;;;4993528;28;20041;-78
2023/11/03 02:43:01;;;;;;;1.80;0.60;;;9.70;99.90;;;;;;4966702;28;20031;-78
2023/11/03 02:45:27;;;;;;;1.55;0.30;;;9.80;99.90;;;;;;4994375;28;20038;-78
2023/11/03 02:47:52;;;;;;;2.15;0.20;;;9.80;99.90;;;;;;4965841;28;20343;-78
2023/11/03 02:50:18;;;;;;;2.53;0.35;;;9.90;99.90;;;;;;4993330;28;20449;-80
2023/11/03 02:52:43;;;;;;;2.22;0.52;;;9.80;99.90;;;;;;4995271;28;20027;-78
2023/11/03 02:55:10;;;;;;;1.75;0.40;;;9.90;99.90;;;;;;4996797;28;20045;-78
2023/11/03 02:57:35;;;;;;;1.25;0.40;;;9.90;99.90;;;;;;4981061;28;20026;-77
2023/11/03 03:00:01;;;;;;;1.92;0.47;;;9.80;99.90;;;;;;4981712;28;20036;-78
2023/11/03 03:02:26;;;;;;;2.25;0.22;;;9.80;99.90;;;;;;4981589;28;20045;-78
2023/11/03 03:04:52;;;;;;;4.68;0.50;;;9.80;99.90;;;;;;4981437;28;20479;-78
2023/11/03 03:07:18;;;;;;;4.47;0.20;;;9.80;99.90;;;;;;4983326;28;20318;-78
2023/11/03 03:09:43;;;;;;;2.58;0.50;;;9.80;99.90;;;;;;4977268;28;20073;-79
2023/11/03 03:12:09;;;;;;;2.47;0.70;;;9.80;99.90;;;;;;4964943;28;20088;-78
2023/11/03 03:14:35;;;;;;;1.65;0.40;;;9.80;99.90;;;;;;4982490;28;20026;-78
2023/11/03 03:17:00;;;;;;;3.35;0.30;;;9.70;99.90;;;;;;4982311;28;20042;-79
2023/11/03 03:19:26;;;;;;;2.80;0.60;;;9.70;99.90;;;;;;4963930;28;20040;-78
2023/11/03 03:21:51;;;;;;;0.75;0.20;;;9.70;99.90;;;;;;4995245;28;20038;-77
2023/11/03 03:24:17;;;;;;;0.82;0.25;;;9.60;99.90;;;;;;4988421;28;20110;-78
2023/11/03 03:26:42;;;;;;;2.80;0.60;;;9.70;99.90;;;;;;4976082;28;20026;-78
2023/11/03 03:29:08;;;;;;;1.13;0.60;;;9.70;99.90;;;;;;4997336;28;20037;-78
2023/11/03 03:31:34;;;;;;;0.57;0.47;;;9.70;99.90;;;;;;4984365;28;20118;-79
2023/11/03 03:33:59;;;;;;;0.50;0.30;;;9.70;99.90;;;;;;4985135;28;20077;-78
2023/11/03 03:36:25;;;;;;;0.80;0.28;;;9.70;99.90;;;;;;5003341;28;20035;-78
2023/11/03 03:38:51;;;;;;;0.93;0.30;;;9.60;99.90;;;;;;4968404;28;20042;-78
2023/11/03 03:41:16;;;;;;;4.57;1.45;;;9.60;99.90;;;;;;4980005;28;20035;-78
2023/11/03 03:43:42;;;;;;;1.77;0.60;;;9.60;99.90;;;;;;5004176;28;20033;-78
2023/11/03 03:46:07;;;;;;;1.60;0.63;;;9.60;99.90;;;;;;4984809;28;20125;-78
2023/11/03 03:48:33;;;;;;;2.72;0.65;;;9.60;99.90;;;;;;4969001;28;20039;-78
2023/11/03 03:50:58;;;;;;;2.50;0.50;;;9.60;99.90;;;;;;4953140;28;20081;-78
2023/11/03 03:53:24;;;;;;;0.73;0.20;;;9.60;99.90;;;;;;4996697;28;20042;-77
2023/11/03 03:55:50;;;;;;;1.23;0.28;;;9.80;99.90;;;;;;4996604;28;20111;-78
2023/11/03 03:58:15;;;;;;;3.47;0.68;;;9.60;99.90;;;;;;5015054;28;20058;-76
2023/11/03 04:00:41;;;;;;;0.85;0.17;;;9.60;99.90;;;;;;5000774;28;20397;-77
2023/11/03 04:03:06;;;;;;;2.50;0.47;;;9.60;99.90;;;;;;4984624;28;20411;-77
2023/11/03 04:05:32;;;;;;;1.13;0.40;;;9.60;99.90;;;;;;4985199;28;20475;-80
2023/11/03 04:07:58;;;;;;;3.42;0.45;;;9.60;99.90;;;;;;4968655;28;20419;-78
2023/11/03 04:10:23;;;;;;;3.90;0.50;;;9.50;99.90;;;;;;4986428;28;20074;-77
2023/11/03 04:12:49;;;;;;;3.25;0.70;;;9.50;99.90;;;;;;4997298;28;20118;-78
2023/11/03 04:15:15;;;;;;;0.20;0.10;;;9.60;99.90;;;;;;4987885;28;20038;-79
2023/11/03 04:17:40;;;;;;;1.63;0.60;;;9.60;99.90;;;;;;4997837;28;20035;-77
2023/11/03 04:20:06;;;;;;;0.57;0.40;;;9.50;99.90;;;;;;4996891;28;20521;-79
2023/11/03 04:22:32;;;;;;;5.22;0.63;;;9.50;99.90;;;;;;4996875;28;20034;-79
2023/11/03 04:24:58;;;;;;;0.88;0.40;;;9.50;99.90;;;;;;4984232;28;20038;-80
2023/11/03 04:27:23;;;;;;;3.13;0.47;;;9.60;99.90;;;;;;4986068;28;20220;-80
2023/11/03 04:29:49;;;;;;;1.92;0.30;;;9.50;99.90;;;;;;4997924;28;20153;-78
2023/11/03 04:32:14;;;;;;;4.57;0.47;;;9.50;99.90;;;;;;4998529;28;20049;-78
2023/11/03 04:34:40;;;;;;;4.13;0.90;;;9.50;99.90;;;;;;4984314;28;20038;-78
2023/11/03 04:37:05;;;;;;;1.55;0.52;;;9.40;99.90;;;;;;4999743;28;20029;-77
2023/11/03 04:39:31;;;;;;;3.50;0.75;;;9.50;99.90;;;;;;4985561;28;20730;-78
2023/11/03 04:41:56;;;;;;;3.35;0.63;;;9.50;99.90;;;;;;4980449;28;20034;-78
2023/11/03 04:44:22;;;;;;;2.63;0.40;;;9.40;99.90;;;;;;4997680;28;20022;-78
2023/11/03 04:46:48;;;;;;;0.38;0.20;;;9.50;99.90;;;;;;4983016;28;20409;-78
2023/11/03 04:49:14;;;;;;;3.90;0.57;;;9.50;99.90;;;;;;4983085;28;20034;-78
2023/11/03 04:51:40;;;;;;;1.95;0.40;;;9.40;99.90;;;;;;4981607;28;20042;-79
2023/11/03 04:54:06;;;;;;;8.82;1.52;;;9.40;99.90;;;;;;4992178;28;21086;-78
2023/11/03 04:56:32;;;;;;;7.78;0.63;;;9.40;99.90;;;;;;4966854;28;20031;-78
2023/11/03 04:58:57;;;;;;;5.57;0.75;;;9.40;99.90;;;;;;4978798;28;20045;-79
2023/11/03 05:01:23;;;;;;;3.15;0.75;;;9.40;99.90;;;;;;4979958;28;20035;-78
2023/11/03 05:03:49;;;;;;;3.15;0.63;;;9.40;99.90;;;;;;4993435;28;20497;-78
2023/11/03 05:06:14;;;;;;;1.05;0.50;;;9.40;99.90;;;;;;4996043;28;20049;-78
2023/11/03 05:08:40;;;;;;;7.05;0.90;;;9.50;99.90;;;;;;4994888;28;20157;-77
2023/11/03 05:11:05;;;;;;;0.63;0.25;;;9.50;99.90;;;;;;4983310;28;20046;-78
2023/11/03 05:13:31;;;;;;;5.95;0.95;;;9.50;99.90;;;;;;4982172;28;20034;-79
2023/11/03 05:15:56;;;;;;;4.85;1.00;;;9.60;99.90;;;;;;4966779;28;20018;-80
2023/11/03 05:18:22;;;;;;;3.10;1.13;;;9.50;99.90;;;;;;4979318;28;20073;-78
2023/11/03 05:20:48;;;;;;;6.15;1.48;;;9.60;99.90;;;;;;4979295;28;20442;-79
2023/11/03 05:23:13;;;;;;;1.10;0.82;;;9.60;99.90;;;;;;4966490;28;20130;-77
2023/11/03 05:25:39;;;;;;;3.72;1.02;;;9.40;99.90;;;;;;4980501;28;20073;-78
2023/11/03 05:28:05;;;;;;;1.88;0.38;;;9.50;99.90;;;;;;4966832;28;20038;-79
2023/11/03 05:30:30;;;;;;;1.80;0.50;;;9.60;99.90;;;;;;4983176;28;20042;-78
2023/11/03 05:32:56;;;;;;;7.03;0.63;;;9.50;99.90;;;;;;4981767;28;20474;-78
2023/11/03 05:35:22;;;;;;;5.07;0.75;;;9.50;99.90;;;;;;4991723;28;20035;-78
2023/11/03 05:37:50;;;;;;;3.80;1.40;;;9.50;99.90;;;;;;4990164;28;20100;-78
2023/11/03 05:40:16;;;;;;;1.88;0.50;;;9.60;99.90;;;;;;4959676;28;20402;-78
2023/11/03 05:42:42;;;;;;;21.42;1.77;;;9.60;99.90;;;;;;4987865;28;20026;-78
2023/11/03 05:45:08;;;;;;;1.65;0.85;;;9.50;99.90;;;;;;4980497;28;20045;-78
2023/11/03 05:47:35;;;;;;;2.00;0.52;;;9.50;99.90;;;;;;5013467;28;20038;-78
2023/11/03 05:50:01;;;;;;;8.43;1.05;;;9.50;99.90;;;;;;4962360;28;20052;-77
2023/11/03 05:52:26;;;;;;;2.33;0.57;;;9.40;99.90;;;;;;4981720;28;20027;-78
2023/11/03 05:54:52;;;;;;;5.63;1.27;;;9.50;99.90;;;;;;4957298;28;20030;-77
2023/11/03 05:57:18;;;;;;;3.28;0.70;;;9.50;99.90;;;;;;4979855;28;20046;-77
2023/11/03 05:59:44;;;;;;;7.07;1.23;;;9.50;99.90;;;;;;4965174;28;20027;-79
2023/11/03 06:02:11;;;;;;;5.25;0.85;;;9.50;99.90;;;;;;4981349;28;20553;-77
2023/11/03 06:04:36;;;;;;;4.95;1.00;;;9.50;99.90;;;;;;4981236;28;20158;-78
2023/11/03 06:07:06;;;;;;;4.07;0.52;;;9.40;99.90;;;;;;4982619;28;20059;-78
2023/11/03 06:09:33;;;;;;;2.58;0.50;;;9.40;99.90;;;;;;4981487;28;20057;-78
2023/11/03 06:12:00;;;;;;;5.40;0.52;;;9.40;99.90;;;;;;4993219;28;20034;-78
2023/11/03 06:14:26;;;;;;;7.10;1.17;;;9.50;99.90;;;;;;4965309;28;22177;-78
2023/11/03 06:16:51;;;;;;;8.55;1.45;;;9.50;99.90;;;;;;4965878;28;20065;-78
2023/11/03 06:19:17;;;;;;;2.58;0.65;;;9.40;99.90;;;;;;4966381;28;20486;-78
2023/11/03 06:21:42;;;;;;;4.40;0.77;;;9.40;99.90;;;;;;4990994;28;20034;-78
2023/11/03 06:24:10;;;;;;;4.47;0.93;;;9.30;99.90;;;;;;4994503;28;20046;-79
2023/11/03 06:26:36;;;;;;;6.15;1.30;;;9.30;99.90;;;;;;4995787;28;20515;-78
2023/11/03 06:29:02;;;;;;;3.00;0.60;;;9.40;99.90;;;;;;4953038;28;20046;-78
2023/11/03 06:31:27;;;;;;;8.38;1.35;;;9.30;99.90;;;;;;4981395;28;20395;-78
2023/11/03 06:33:53;;;;;;;7.60;1.88;;;9.30;99.90;;;;;;4980897;28;20105;-79
2023/11/03 06:36:18;;;;;;;2.65;0.60;;;9.30;99.90;;;;;;4966539;28;20380;-79
2023/11/03 06:38:44;;;;;;;9.85;1.35;;;9.30;99.90;;;;;;4995636;28;20099;-78
2023/11/03 06:41:11;;;;;;;5.07;1.08;;;9.30;99.90;;;;;;4981790;28;20042;-78
2023/11/03 06:43:39;;;;;;;4.05;0.73;;;9.30;99.90;;;;;;4994955;28;20089;-79
2023/11/03 06:46:05;;;;;;;2.80;0.50;;;9.20;99.90;;;;;;4981018;28;20453;-79
2023/11/03 06:48:31;;;;;;;5.25;1.70;;;9.30;99.90;;;;;;4981960;28;20036;-78
2023/11/03 06:50:57;;;;;;;6.03;1.25;;;9.30;99.90;;;;;;4960513;28;20050;-79
2023/11/03 06:53:25;;;;;;;4.15;0.75;;;9.30;99.90;;;;;;4965850;28;20046;-78
2023/11/03 06:55:51;;;;;;;5.10;1.20;;;9.30;99.90;;;;;;5010439;28;20065;-78
2023/11/03 06:58:16;;;;;;;3.53;0.70;;;9.20;99.90;;;;;;4996652;28;20141;-78
2023/11/03 07:00:43;;;;;;;0.70;0.40;;;9.30;99.90;;;;;;4982503;28;20041;-78
2023/11/03 07:03:09;;;;;;;6.75;1.17;;;9.30;99.90;;;;;;4982294;28;20365;-79
2023/11/03 07:05:38;;;;;;;6.60;1.20;;;9.20;99.90;;;;;;4986626;28;20157;-79
2023/11/03 07:08:04;;;;;;;5.25;0.90;;;9.30;99.90;;;;;;4969022;28;20038;-78
2023/11/03 07:10:30;;;;;;;9.55;1.90;;;9.30;99.90;;;;;;4985518;28;20117;-79
2023/11/03 07:12:56;;;;;;;6.25;0.63;;;9.20;99.90;;;;;;4962818;28;20132;-78
2023/11/03 07:15:23;;;;;;;2.28;0.57;;;9.20;99.90;;;;;;4986285;28;20026;-79
2023/11/03 07:17:49;;;;;;;1.88;0.82;;;9.30;99.90;;;;;;4997038;28;20030;-78
2023/11/03 07:20:15;;;;;;;5.20;0.88;;;9.30;99.90;;;;;;4988417;28;20080;-81
2023/11/03 07:22:40;;;;;;;2.97;0.80;;;9.40;99.90;;;;;;4985792;28;20088;-82
2023/11/03 07:25:06;;;;;;;1.88;0.50;;;9.40;99.90;;;;;;5003482;28;20114;-82
2023/11/03 07:27:32;;;;;;;5.65;1.17;;;9.50;99.90;;;;;;4999053;28;20046;-81
2023/11/03 07:29:57;;;;;;;3.97;0.88;;;9.50;99.90;;;;;;4985897;28;20042;-81
2023/11/03 07:32:23;;;;;;;7.10;1.10;;;9.50;99.90;;;;;;4986557;28;20751;-81
2023/11/03 07:34:48;;;;;;;4.90;0.90;;;9.50;99.90;;;;;;5016145;28;20034;-81
2023/11/03 07:37:15;;;;;;;5.50;0.80;;;9.60;99.90;;;;;;4986150;28;20030;-82
2023/11/03 07:39:41;;;;;;;5.40;0.75;;;9.50;99.90;;;;;;4998014;28;20557;-81
2023/11/03 07:42:07;;;;;;;4.47;0.82;;;9.60;99.90;;;;;;4982257;28;20041;-82
2023/11/03 07:44:32;;;;;;;3.80;0.95;;;9.70;99.90;;;;;;5007401;28;20056;-81
2023/11/03 07:46:58;;;;;;;6.68;0.52;;;9.70;99.90;;;;;;4969381;28;20038;-80
2023/11/03 07:49:23;;;;;;;2.67;0.90;;;9.70;99.90;;;;;;4995563;28;20042;-81
2023/11/03 07:51:49;;;;;;;5.65;0.73;;;9.70;99.90;;;;;;4984518;28;20053;-80
2023/11/03 07:54:15;;;;;;;2.38;0.63;;;9.80;99.90;;;;;;4984651;28;20042;-80
2023/11/03 07:56:42;;;;;;;7.25;0.95;;;9.80;99.90;;;;;;4984427;28;20113;-80
2023/11/03 07:59:08;;;;;;;1.45;0.50;;;9.80;99.90;;;;;;5001938;28;20483;-80
2023/11/03 08:01:33;;;;;;;9.63;1.08;;;9.90;99.90;;;;;;4969164;28;20038;-78
2023/11/03 08:03:59;;;;;;;4.32;0.60;;;9.90;99.90;;;;;;4967100;28;20437;-79
2023/11/03 08:06:24;;;;;;;7.20;1.00;;;10.00;99.90;;;;;;4984055;28;20034;-79
2023/11/03 08:08:50;;;;;;;1.17;0.60;;;10.00;99.90;;;;;;4983034;28;20063;-81
2023/11/03 08:11:16;;;;;;;3.03;0.65;;;10.10;99.90;;;;;;4966749;28;20092;-81
2023/11/03 08:13:41;;;;;;;9.45;1.20;;;10.10;99.90;;;;;;4996632;28;20771;-81
2023/11/03 08:16:08;;;;;;;4.63;0.47;;;10.10;99.90;;;;;;4986884;28;20030;-81
2023/11/03 08:18:34;;;;;;;3.83;0.70;;;10.10;99.90;;;;;;4983906;28;20403;-82
2023/11/03 08:21:00;;;;;;;5.90;0.90;;;10.20;99.90;;;;;;4984222;28;20041;-82
2023/11/03 08:23:26;;;;;;;1.75;0.70;;;10.20;99.90;;;;;;4983957;28;20650;-81
2023/11/03 08:25:52;;;;;;;4.60;0.60;;;10.20;99.90;;;;;;4960260;28;20561;-82
2023/11/03 08:28:17;;;;;;;8.32;1.60;;;10.30;99.90;;;;;;4995766;28;20018;-82
2023/11/03 08:30:43;;;;;;;9.52;1.33;;;10.30;99.90;;;;;;4983623;28;20034;-80
2023/11/03 08:33:08;;;;;;;3.28;0.40;;;10.30;99.90;;;;;;4984126;28;20034;-82
2023/11/03 08:35:34;;;;;;;5.72;1.17;;;10.40;99.90;;;;;;4984211;28;20025;-82
2023/11/03 08:38:00;;;;;;;5.45;0.82;;;10.40;99.90;;;;;;4981634;28;20035;-80
2023/11/03 08:40:26;;;;;;;3.58;0.50;;;10.40;99.90;;;;;;4968310;28;20105;-80
2023/11/03 08:42:51;;;;;;;6.68;1.25;;;10.60;99.90;;;;;;4967873;28;20027;-80
2023/11/03 08:45:17;;;;;;;12.10;1.20;;;10.60;99.90;;;;;;5014829;28;20026;-80
2023/11/03 08:47:43;;;;;;;5.70;0.70;;;10.60;99.90;;;;;;4991131;28;20068;-80
2023/11/03 08:50:12;;;;;;;10.60;1.58;;;10.70;99.90;;;;;;4983903;28;20041;-80
2023/11/03 08:52:38;;;;;;;5.43;0.90;;;10.70;99.90;;;;;;4968961;28;20390;-80
2023/11/03 08:55:06;;;;;;;3.88;0.57;;;10.70;99.90;;;;;;4995868;28;20110;-80
2023/11/03 08:57:39;;;;;;;7.88;1.25;;;10.70;99.90;;;;;;4981074;28;20458;-80
2023/11/03 09:00:08;;;;;;;6.88;0.73;;;10.80;99.90;;;;;;4983416;28;20062;-81
2023/11/03 09:02:34;;;;;;;1.48;0.50;;;10.80;99.90;;;;;;4996505;28;20058;-80
2023/11/03 09:05:00;;;;;;;7.45;1.30;;;10.90;99.90;;;;;;4966975;28;20767;-81
2023/11/03 09:07:26;;;;;;;9.15;1.00;;;10.90;99.90;;;;;;4982408;28;20030;-80
2023/11/03 09:09:52;;;;;;;1.25;0.50;;;10.90;99.90;;;;;;5011570;28;20030;-80
2023/11/03 09:12:17;;;;;;;2.78;0.45;;;10.90;99.90;;;;;;4967217;28;20045;-81
2023/11/03 09:14:43;;;;;;;5.45;0.68;;;10.80;99.90;;;;;;4967081;28;20490;-80
2023/11/03 09:17:09;;;;;;;1.65;0.47;;;10.90;99.90;;;;;;4967554;28;20559;-80
2023/11/03 09:19:35;;;;;;;9.32;1.10;;;11.00;99.90;;;;;;4982987;28;20101;-80
2023/11/03 09:22:01;;;;;;;4.15;0.45;;;10.90;99.90;;;;;;4984379;28;20046;-81
2023/11/03 09:24:27;;;;;;;6.15;1.35;;;10.90;99.90;;;;;;4994827;28;20038;-80
2023/11/03 09:26:53;;;;;;;6.53;1.10;;;11.00;99.90;;;;;;4981135;28;20093;-80
2023/11/03 09:29:19;;;;;;;4.53;0.90;;;11.00;99.90;;;;;;4981165;28;20493;-80
2023/11/03 09:31:47;;;;;;;6.65;1.20;;;11.10;99.90;;;;;;4967111;28;20038;-80
2023/11/03 09:34:13;;;;;;;1.65;0.43;;;11.00;99.90;;;;;;5012499;28;20491;-81
2023/11/03 09:36:38;;;;;;;3.55;1.08;;;10.90;99.90;;;;;;4966011;28;20061;-80
2023/11/03 09:39:04;;;;;;;15.90;1.15;;;11.00;99.90;;;;;;4996147;28;20089;-80
2023/11/03 09:41:33;;;;;;;5.07;1.02;;;10.90;99.90;;;;;;4982839;28;20475;-80
2023/11/03 09:43:59;;;;;;;11.52;2.28;;;10.90;99.90;;;;;;4966852;28;20121;-80
2023/11/03 09:46:25;;;;;;;6.05;1.08;;;10.90;99.90;;;;;;4993309;28;20461;-80
2023/11/03 09:48:51;;;;;;;3.70;0.80;;;10.90;99.90;;;;;;4993154;28;20031;-83
2023/11/03 09:51:16;;;;;;;8.88;0.80;;;10.80;99.90;;;;;;4967259;28;20026;-81
2023/11/03 09:53:43;;;;;;;3.67;0.50;;;10.80;99.90;;;;;;4993943;28;20048;-80
2023/11/03 09:56:08;;;;;;;6.45;1.20;;;10.80;99.90;;;;;;4991839;28;20070;-81
2023/11/03 09:58:34;;;;;;;5.15;0.63;;;10.90;99.90;;;;;;4996889;28;20054;-81
2023/11/03 10:01:01;;;;;;;3.83;0.85;;;10.90;99.90;;;;;;4966297;28;20031;-82
2023/11/03 10:03:27;;;;;;;3.58;0.98;;;10.80;99.90;;;;;;4996579;28;20026;-81
2023/11/03 10:05:53;;;;;;;5.38;1.08;;;10.80;99.90;;;;;;4967672;28;20034;-81
2023/11/03 10:08:20;;;;;;;8.73;1.08;;;10.90;99.90;;;;;;4982206;28;20513;-81
2023/11/03 10:10:47;;;;;;;10.65;1.40;;;10.90;99.90;;;;;;4966824;28;20132;-81
2023/11/03 10:13:13;;;;;;;8.98;1.25;;;11.00;99.90;;;;;;4965858;28;20113;-82
2023/11/03 10:15:39;;;;;;;14.02;1.50;;;11.10;99.90;;;;;;4981095;28;20026;-81
2023/11/03 10:18:05;;;;;;;2.28;0.95;;;11.10;99.90;;;;;;4991121;28;20034;-81
2023/11/03 10:20:31;;;;;;;8.63;1.30;;;11.30;99.90;;;;;;4981723;28;20041;-81
2023/11/03 10:22:56;;;;;;;10.07;1.10;;;11.50;99.90;;;;;;4977917;28;20030;-81
2023/11/03 10:25:26;;;;;;;2.92;0.63;;;11.50;99.90;;;;;;4966689;28;20478;-81
2023/11/03 10:27:54;;;;;;;7.72;1.60;;;11.70;99.90;;;;;;4982013;28;20050;-82
2023/11/03 10:30:26;;;;;;;7.38;1.38;;;11.80;99.90;;;;;;4979869;28;20410;-81
2023/11/03 10:32:55;;;;;;;5.93;1.30;;;11.90;99.90;;;;;;4967274;28;20490;-82
2023/11/03 10:35:21;;;;;;;4.72;0.60;;;12.00;99.90;;;;;;4966995;28;20037;-81
2023/11/03 10:37:47;;;;;;;6.57;1.17;;;12.10;99.90;;;;;;4992965;28;20442;-81
2023/11/03 10:40:13;;;;;;;15.43;1.60;;;12.30;99.90;;;;;;4977978;28;20037;-82
2023/11/03 10:42:49;;;;;;;7.13;1.00;;;12.40;99.90;;;;;;4983327;28;20038;-81
2023/11/03 10:45:15;;;;;;;;;;;12.60;99.90;;;;;;4995236;28;20034;-82
2023/11/03 10:48:03;;;;;;;;;;;12.80;99.90;;;;;;4966942;28;20278;-81
2023/11/03 10:50:33;;;;;;;;;;;12.90;99.90;;;;;;5014259;28;19949;-81
2023/11/03 10:53:09;;;;;;;9.75;1.35;;;13.10;99.90;;;;;;4983826;28;19910;-82
2023/11/03 10:55:38;;;;;;;5.47;0.98;;;13.20;99.90;;;;;;4972218;28;20030;-81
2023/11/03 10:58:04;;;;;;;10.25;1.10;;;13.40;99.90;;;;;;4987531;28;20495;-81
2023/11/03 11:00:39;;;;;;;2.65;0.65;;;13.60;99.90;;;;;;5000108;28;20065;-81
2023/11/03 11:03:06;;;;;;;5.47;0.98;;;13.50;99.90;;;;;;4293587;28;10000537;-81
2023/11/03 11:05:38;;;;;;;6.25;1.20;;;13.70;99.90;;;;;;5012859;28;20166;-82
2023/11/03 11:08:04;;;;;;;9.90;1.45;;;13.70;99.90;;;;;;4996697;28;20042;-82
2023/11/03 11:10:40;;;;;;;11.77;1.83;;;13.90;99.90;;;;;;4992739;28;20034;-82
2023/11/03 11:13:18;;;;;;;4.75;1.10;;;14.00;99.90;;;;;;4984204;28;20069;-81
2023/11/03 11:15:56;;;;;;;8.10;1.45;;;14.20;99.90;;;;;;4983550;28;20705;-81
2023/11/03 11:18:28;;;;;;;3.05;0.80;;;14.20;99.90;;;;;;4986064;28;20054;-81
2023/11/03 11:20:55;;;;;;;8.00;1.20;;;14.10;99.90;;;;;;4992384;28;20023;-81
2023/11/03 11:23:22;;;;;;;9.30;1.70;;;14.20;99.90;;;;;;4983161;28;20121;-81
2023/11/03 11:25:51;;;;;;;2.90;1.00;;;14.40;99.90;;;;;;4994267;28;20034;-81
2023/11/03 11:28:35;;;;;;;5.15;1.17;;;14.40;99.90;;;;;;4967438;28;20039;-81
2023/11/03 11:31:22;;;;;;;4.85;0.77;;;14.40;99.90;;;;;;5010698;28;20129;-81
2023/11/03 11:34:04;;;;;;;2.60;0.70;;;14.40;99.90;;;;;;4984453;28;20045;-81
2023/11/03 11:36:33;;;;;;;2.95;1.08;;;14.40;99.90;;;;;;4992283;28;20035;-81
2023/11/03 11:39:13;;;;;;;4.72;0.47;;;14.50;99.70;;;;;;4984258;28;20035;-82
2023/11/03 11:41:59;;;;;;;4.25;1.33;;;14.50;99.50;;;;;;4995217;28;20034;-81
2023/11/03 11:44:26;;;;;;;5.55;0.60;;;14.40;99.70;;;;;;4987999;28;20606;-81
2023/11/03 11:46:56;;;;;;;6.53;0.98;;;14.30;99.10;;;;;;4983702;28;20405;-81
2023/11/03 11:49:23;;;;;;;4.15;1.08;;;14.20;99.50;;;;;;4999980;28;20038;-81
2023/11/03 11:51:50;;;;;;;7.68;1.33;;;14.20;99.70;;;;;;4968230;28;20537;-81
2023/11/03 11:54:19;;;;;;;10.07;1.75;;;14.20;99.70;;;;;;4975912;28;20034;-81
2023/11/03 11:56:46;;;;;;;4.95;0.95;;;14.10;99.90;;;;;;4965610;28;20033;-81
2023/11/03 11:59:16;;;;;;;11.35;1.52;;;14.10;99.90;;;;;;4982815;28;20096;-81
2023/11/03 12:01:43;;;;;;;4.03;0.80;;;14.10;99.90;;;;;;4988484;28;20042;-80
2023/11/03 12:04:12;;;;;;;8.95;1.67;;;14.10;99.90;;;;;;5008427;28;20530;-82
2023/11/03 12:06:38;;;;;;;5.82;1.75;;;14.10;99.80;;;;;;4992432;28;20042;-81
2023/11/03 12:09:03;;;;;;;11.05;1.42;;;14.20;99.60;;;;;;4970211;28;20371;-79
2023/11/03 12:11:29;;;;;;;3.05;0.60;;;14.20;99.90;;;;;;4985753;28;20061;-79
2023/11/03 12:13:56;;;;;;;8.00;0.73;;;14.20;99.50;;;;;;4962226;28;20386;-79
2023/11/03 12:16:22;;;;;;;3.25;0.70;;;14.30;99.70;;;;;;4984197;28;20286;-78
2023/11/03 12:18:50;;;;;;;4.47;0.60;;;14.40;99.40;;;;;;4976872;28;20415;-79
2023/11/03 12:21:16;;;;;;;4.45;1.17;;;14.40;98.90;;;;;;4986142;28;20576;-79
2023/11/03 12:23:42;;;;;;;7.13;0.77;;;14.50;99.20;;;;;;4968968;28;20026;-79
2023/11/03 12:26:07;;;;;;;7.95;1.00;;;14.50;99.10;;;;;;4983460;28;20058;-80
2023/11/03 12:28:33;;;;;;;7.13;0.80;;;14.50;99.20;;;;;;4968775;28;20367;-79
2023/11/03 12:30:59;;;;;;;5.20;1.20;;;14.40;99.60;;;;;;4985092;28;20084;-79
2023/11/03 12:33:27;;;;;;;6.70;0.70;;;14.60;99.70;;;;;;5001126;28;20031;-82
2023/11/03 12:35:56;;;;;;;2.35;0.57;;;14.40;99.70;;;;;;4995194;28;20041;-79
2023/11/03 12:38:21;;;;;;;8.43;1.20;;;14.40;99.70;;;;;;4991807;28;20056;-78
2023/11/03 12:40:47;;;;;;;3.67;0.50;;;14.30;99.60;;;;;;4984428;28;20027;-82
2023/11/03 12:43:14;;;;;;;9.90;2.10;;;14.40;99.20;;;;;;4988916;28;20038;-81
2023/11/03 12:45:40;;;;;;;4.63;0.73;;;14.30;99.60;;;;;;5004771;28;20031;-80
2023/11/03 12:48:21;;;;;;;4.55;0.65;;;14.40;99.30;;;;;;4973140;28;20030;-81
2023/11/03 12:51:07;;;;;;;4.80;0.88;;;14.40;99.40;;;;;;4975974;28;20097;-81